createdAt,value
2022-09-05T00:00:12.167Z,18.39
2022-09-05T00:02:53.394Z,18.34
2022-09-05T00:06:02.139Z,18.37
2022-09-05T00:08:56.007Z,18.29
2022-09-05T00:11:41.157Z,18.28
2022-09-05T00:14:34.390Z,18.24
2022-09-05T00:17:22.012Z,18.18
2022-09-05T00:24:25.377Z,18.04
2022-09-05T00:24:33.004Z,18.17
2022-09-05T00:26:18.437Z,18.03
2022-09-05T00:29:16.270Z,18.01
2022-09-05T00:32:04.260Z,18.08
2022-09-05T00:34:51.314Z,18.12
2022-09-05T00:37:35.304Z,18.08
2022-09-05T00:40:27.485Z,18.03
2022-09-05T00:43:07.093Z,18.06
2022-09-05T00:45:49.827Z,18.00
2022-09-05T00:48:25.557Z,18.00
2022-09-05T00:51:08.015Z,17.91
2022-09-05T00:53:51.140Z,17.89
2022-09-05T00:56:47.026Z,17.91
2022-09-05T00:59:59.002Z,17.84
2022-09-05T01:03:11.018Z,17.80
2022-09-05T01:06:16.367Z,17.73
2022-09-05T01:09:07.998Z,17.71
2022-09-05T01:11:38.125Z,17.67
2022-09-05T01:14:12.937Z,17.66
2022-09-05T01:17:01.845Z,17.64
2022-09-05T01:20:19.371Z,17.59
2022-09-05T01:23:24.882Z,17.58
2022-09-05T01:26:21.002Z,17.56
2022-09-05T01:29:16.894Z,17.53
2022-09-05T01:32:15.657Z,17.51
2022-09-05T01:34:56.843Z,17.46
2022-09-05T01:37:40.712Z,17.50
2022-09-05T01:40:15.831Z,17.54
2022-09-05T01:43:21.124Z,17.60
2022-09-05T01:46:09.711Z,17.70
2022-09-05T01:48:58.366Z,17.67
2022-09-05T01:51:40.484Z,17.70
2022-09-05T01:54:34.863Z,17.62
2022-09-05T01:57:11.221Z,17.64
2022-09-05T01:59:42.247Z,17.59
2022-09-05T02:02:19.661Z,17.57
2022-09-05T02:05:11.921Z,17.60
2022-09-05T02:08:00.444Z,17.55
2022-09-05T02:11:04.516Z,17.48
2022-09-05T02:13:34.527Z,17.47
2022-09-05T02:16:29.122Z,17.47
2022-09-05T02:19:07.346Z,17.50
2022-09-05T02:21:39.222Z,17.47
2022-09-05T02:24:41.820Z,17.47
2022-09-05T02:28:05.090Z,17.48
2022-09-05T02:30:27.249Z,17.48
2022-09-05T02:33:21.484Z,17.47
2022-09-05T02:36:00.259Z,17.51
2022-09-05T02:40:53.475Z,17.50
2022-09-05T02:45:11.751Z,17.53
2022-09-05T02:45:13.550Z,17.51
2022-09-05T02:47:37.220Z,17.54
2022-09-05T02:54:54.157Z,17.64
2022-09-05T02:57:39.661Z,17.59
2022-09-05T02:57:43.269Z,17.53
2022-09-05T02:59:35.751Z,17.52
2022-09-05T03:02:27.141Z,17.53
2022-09-05T03:05:14.760Z,17.63
2022-09-05T03:08:03.443Z,17.61
2022-09-05T03:11:02.513Z,17.57
2022-09-05T03:13:55.721Z,17.60
2022-09-05T03:16:47.107Z,17.61
2022-09-05T03:19:46.325Z,17.68
2022-09-05T03:22:36.705Z,17.66
2022-09-05T03:25:25.825Z,17.69
2022-09-05T03:28:05.653Z,17.66
2022-09-05T03:30:58.446Z,17.57
2022-09-05T03:33:37.676Z,17.65
2022-09-05T03:36:22.709Z,17.65
2022-09-05T03:39:19.987Z,17.70
2022-09-05T03:42:01.888Z,17.71
2022-09-05T03:44:41.116Z,17.71
2022-09-05T03:47:23.099Z,17.72
2022-09-05T03:56:44.001Z,17.67
2022-09-05T03:57:22.793Z,17.73
2022-09-05T03:57:23.883Z,17.67
2022-09-05T03:59:32.253Z,17.79
2022-09-05T04:03:05.741Z,17.72
2022-09-05T04:08:14.990Z,17.65
2022-09-05T04:08:20.512Z,17.67
2022-09-05T04:11:02.665Z,17.74
2022-09-05T04:13:35.636Z,17.74
2022-09-05T04:16:09.640Z,17.72
2022-09-05T04:18:45.263Z,17.74
2022-09-05T04:21:18.864Z,17.67
2022-09-05T04:24:08.141Z,17.60
2022-09-05T04:26:50.026Z,17.64
2022-09-05T04:29:43.141Z,17.55
2022-09-05T04:32:35.331Z,17.50
2022-09-05T04:35:14.737Z,17.53
2022-09-05T04:37:59.773Z,17.45
2022-09-05T04:40:34.595Z,17.51
2022-09-05T04:43:09.393Z,17.53
2022-09-05T04:45:54.552Z,17.58
2022-09-05T04:48:35.037Z,17.56
2022-09-05T04:51:32.157Z,17.62
2022-09-05T04:54:35.888Z,17.59
2022-09-05T04:57:14.540Z,17.53
2022-09-05T05:03:26.142Z,17.56
2022-09-05T05:06:15.109Z,17.52
2022-09-05T05:06:16.121Z,17.52
2022-09-05T05:08:41.443Z,17.46
2022-09-05T05:17:55.595Z,17.47
2022-09-05T05:18:13.920Z,17.32
2022-09-05T05:18:14.371Z,17.32
2022-09-05T05:20:40.235Z,17.27
2022-09-05T05:23:10.464Z,17.30
2022-09-05T05:25:50.301Z,17.31
2022-09-05T05:28:52.572Z,17.39
2022-09-05T05:31:21.985Z,17.46
2022-09-05T05:33:51.433Z,17.51
2022-09-05T05:36:26.975Z,17.61
2022-09-05T05:38:56.701Z,17.67
2022-09-05T05:41:42.295Z,17.78
2022-09-05T05:44:15.526Z,17.84
2022-09-05T05:47:06.005Z,17.93
2022-09-05T05:49:33.134Z,18.05
2022-09-05T05:52:33.974Z,18.08
2022-09-05T05:55:50.835Z,18.15
2022-09-05T05:58:12.128Z,18.21
2022-09-05T06:01:37.321Z,18.33
2022-09-05T06:04:45.116Z,18.34
2022-09-05T06:07:45.085Z,18.28
2022-09-05T06:15:02.635Z,18.28
2022-09-05T06:15:08.956Z,18.37
2022-09-05T06:17:13.602Z,18.41
2022-09-05T06:22:04.593Z,18.30
2022-09-05T06:23:36.717Z,18.33
2022-09-05T06:26:45.772Z,18.31
2022-09-05T06:29:21.660Z,18.22
2022-09-05T06:31:51.549Z,18.24
2022-09-05T06:34:59.678Z,18.28
2022-09-05T06:37:41.170Z,18.33
2022-09-05T06:40:12.145Z,18.42
2022-09-05T06:43:16.708Z,18.53
2022-09-05T06:45:44.003Z,18.53
2022-09-05T06:48:27.728Z,18.54
2022-09-05T06:51:50.124Z,18.83
2022-09-05T06:54:59.933Z,18.89
2022-09-05T06:58:04.903Z,19.11
2022-09-05T07:00:39.154Z,19.17
2022-09-05T07:03:24.904Z,19.21
2022-09-05T07:06:08.489Z,19.33
2022-09-05T07:09:13.321Z,19.51
2022-09-05T07:12:05.680Z,19.72
2022-09-05T07:14:42.447Z,19.80
2022-09-05T07:17:12.940Z,19.97
2022-09-05T07:19:49.863Z,20.09
2022-09-05T07:22:47.599Z,20.10
2022-09-05T07:25:20.386Z,20.10
2022-09-05T07:28:26.669Z,20.25
2022-09-05T07:30:35.923Z,20.28
2022-09-05T07:33:04.975Z,20.32
2022-09-05T07:35:42.147Z,20.39
2022-09-05T07:38:38.195Z,20.52
2022-09-05T07:41:28.687Z,20.53
2022-09-05T07:44:18.752Z,20.58
2022-09-05T07:47:05.489Z,20.48
2022-09-05T07:49:38.319Z,20.56
2022-09-05T07:56:46.341Z,20.58
2022-09-05T07:56:49.589Z,20.61
2022-09-05T07:58:45.230Z,20.52
2022-09-05T08:01:14.554Z,20.50
2022-09-05T08:03:44.079Z,20.48
2022-09-05T08:06:41.468Z,20.53
2022-09-05T08:10:08.663Z,20.65
2022-09-05T08:12:17.825Z,20.74
2022-09-05T08:15:39.686Z,20.84
2022-09-05T08:18:42.627Z,20.92
2022-09-05T08:21:39.755Z,21.09
2022-09-05T08:24:26.974Z,21.07
2022-09-05T08:27:16.692Z,21.24
2022-09-05T08:29:57.349Z,21.36
2022-09-05T08:33:10.358Z,21.44
2022-09-05T08:35:50.009Z,21.60
2022-09-05T08:38:21.017Z,21.67
2022-09-05T08:41:09.148Z,21.64
2022-09-05T08:46:35.742Z,21.78
2022-09-05T08:46:56.310Z,21.75
2022-09-05T08:49:48.454Z,21.98
2022-09-05T08:52:43.473Z,22.06
2022-09-05T08:55:10.574Z,22.10
2022-09-05T08:57:47.305Z,22.31
2022-09-05T09:00:20.652Z,22.38
2022-09-05T09:03:03.934Z,22.50
2022-09-05T09:06:11.924Z,22.49
2022-09-05T09:09:05.165Z,22.62
2022-09-05T09:11:54.720Z,22.61
2022-09-05T09:14:37.280Z,22.57
2022-09-05T09:17:17.536Z,22.50
2022-09-05T09:20:18.838Z,22.64
2022-09-05T09:23:32.130Z,22.74
2022-09-05T09:26:24.623Z,22.88
2022-09-05T09:29:07.069Z,22.96
2022-09-05T09:32:04.738Z,23.12
2022-09-05T09:35:21.325Z,23.31
2022-09-05T09:37:59.606Z,23.40
2022-09-05T09:40:32.663Z,23.56
2022-09-05T09:43:32.173Z,23.46
2022-09-05T09:46:03.299Z,23.56
2022-09-05T09:48:58.664Z,23.64
2022-09-05T09:51:37.348Z,23.81
2022-09-05T09:54:39.966Z,24.01
2022-09-05T09:57:45.733Z,24.18
2022-09-05T10:00:24.095Z,24.21
2022-09-05T10:04:31.325Z,24.28
2022-09-05T10:10:44.577Z,24.33
2022-09-05T10:10:45.060Z,24.46
2022-09-05T10:13:08.384Z,24.32
2022-09-05T10:15:52.602Z,24.49
2022-09-05T10:18:26.084Z,24.55
2022-09-05T10:21:16.468Z,25.00
2022-09-05T10:24:03.041Z,25.41
2022-09-05T10:26:48.820Z,25.47
2022-09-05T10:29:38.489Z,25.71
2022-09-05T10:35:14.708Z,26.12
2022-09-05T10:35:19.838Z,25.75
2022-09-05T10:37:58.208Z,26.62
2022-09-05T10:40:27.730Z,26.80
2022-09-05T10:43:28.351Z,27.01
2022-09-05T10:45:58.978Z,27.11
2022-09-05T10:48:53.484Z,27.48
2022-09-05T10:51:37.900Z,27.70
2022-09-05T10:54:34.081Z,27.54
2022-09-05T10:57:20.535Z,27.55
2022-09-05T11:02:18.774Z,27.59
2022-09-05T11:02:58.536Z,27.76
2022-09-05T11:05:29.447Z,27.90
2022-09-05T11:08:11.590Z,27.51
2022-09-05T11:11:17.282Z,27.38
2022-09-05T11:14:01.181Z,27.25
2022-09-05T11:16:50.642Z,27.26
2022-09-05T11:19:31.811Z,27.39
2022-09-05T11:22:10.345Z,27.40
2022-09-05T11:24:55.924Z,27.24
2022-09-05T11:27:32.571Z,27.50
2022-09-05T11:30:06.797Z,27.82
2022-09-05T11:39:46.813Z,28.09
2022-09-05T11:40:10.065Z,27.97
2022-09-05T11:40:29.124Z,28.16
2022-09-05T11:42:55.514Z,28.40
2022-09-05T11:45:41.128Z,28.93
2022-09-05T11:48:29.406Z,29.43
2022-09-05T11:51:34.520Z,29.41
2022-09-05T11:54:38.716Z,29.52
2022-09-05T11:57:34.427Z,29.12
2022-09-05T12:00:31.797Z,28.72
2022-09-05T12:03:58.071Z,28.61
2022-09-05T12:06:20.303Z,28.48
2022-09-05T12:09:01.495Z,28.56
2022-09-05T12:12:34.144Z,28.47
2022-09-05T12:15:33.982Z,28.23
2022-09-05T12:18:24.099Z,28.34
2022-09-05T12:21:18.299Z,27.92
2022-09-05T12:25:24.484Z,28.10
2022-09-05T12:27:39.692Z,28.25
2022-09-05T12:30:07.378Z,28.38
2022-09-05T12:36:01.536Z,28.64
2022-09-05T12:36:12.902Z,28.45
2022-09-05T12:41:32.746Z,27.89
2022-09-05T12:42:11.296Z,27.68
2022-09-05T12:45:16.049Z,27.56
2022-09-05T12:47:58.074Z,27.50
2022-09-05T12:50:54.638Z,27.58
2022-09-05T12:53:24.628Z,27.51
2022-09-05T12:59:25.065Z,27.69
2022-09-05T13:02:59.269Z,27.63
2022-09-05T13:03:08.574Z,27.58
2022-09-05T13:05:03.538Z,27.87
2022-09-05T13:07:41.084Z,28.47
2022-09-05T13:12:45.281Z,29.07
2022-09-05T13:14:53.447Z,29.81
2022-09-05T13:16:24.338Z,30.03
2022-09-05T13:19:02.215Z,30.19
2022-09-05T13:21:31.529Z,31.24
2022-09-05T13:24:17.438Z,32.28
2022-09-05T13:26:56.160Z,33.26
2022-09-05T13:30:14.761Z,33.64
2022-09-05T13:38:05.152Z,34.27
2022-09-05T13:38:11.134Z,34.69
2022-09-05T13:38:48.863Z,34.82
2022-09-05T13:41:28.300Z,34.95
2022-09-05T13:44:00.285Z,34.84
2022-09-05T13:46:59.794Z,34.93
2022-09-05T13:49:37.228Z,35.10
2022-09-05T13:52:28.871Z,35.03
2022-09-05T13:55:12.350Z,34.89
2022-09-05T13:57:45.088Z,35.00
2022-09-05T14:00:27.786Z,35.32
2022-09-05T14:03:40.809Z,34.13
2022-09-05T14:06:46.928Z,34.28
2022-09-05T14:09:37.171Z,34.73
2022-09-05T14:12:29.636Z,35.18
2022-09-05T14:15:16.257Z,35.93
2022-09-05T14:18:20.179Z,34.77
2022-09-05T14:21:17.965Z,35.53
2022-09-05T14:23:56.674Z,36.08
2022-09-05T14:26:41.153Z,35.97
2022-09-05T14:29:16.850Z,35.49
2022-09-05T14:37:34.213Z,35.88
2022-09-05T14:37:53.548Z,35.97
2022-09-05T14:38:14.861Z,35.99
2022-09-05T14:41:20.370Z,35.29
2022-09-05T14:44:05.629Z,35.45
2022-09-05T14:46:49.879Z,35.51
2022-09-05T14:49:49.399Z,36.24
2022-09-05T14:52:25.065Z,35.47
2022-09-05T15:02:41.335Z,34.50
2022-09-05T15:02:55.115Z,35.01
2022-09-05T15:06:32.906Z,33.08
2022-09-05T15:11:32.300Z,32.48
2022-09-05T15:12:23.793Z,31.64
2022-09-05T15:14:45.493Z,31.35
2022-09-05T15:17:21.735Z,30.70
2022-09-05T15:20:06.891Z,30.21
2022-09-05T15:22:43.206Z,29.76
2022-09-05T15:25:22.714Z,29.84
2022-09-05T15:27:50.772Z,29.61
2022-09-05T15:30:19.655Z,29.62
2022-09-05T15:32:50.523Z,29.27
2022-09-05T15:35:39.617Z,29.10
2022-09-05T15:38:27.736Z,29.22
2022-09-05T15:41:10.582Z,28.91
2022-09-05T15:44:10.156Z,28.98
2022-09-05T15:46:46.387Z,28.83
2022-09-05T15:49:31.367Z,28.64
2022-09-05T15:52:05.273Z,28.48
2022-09-05T15:54:40.304Z,28.41
2022-09-05T15:57:17.752Z,28.42
2022-09-05T15:59:49.052Z,28.19
2022-09-05T16:02:19.182Z,28.31
2022-09-05T16:10:30.812Z,28.30
2022-09-05T16:10:36.333Z,28.34
2022-09-05T16:11:05.187Z,28.28
2022-09-05T16:13:45.870Z,28.14
2022-09-05T16:23:11.913Z,27.80
2022-09-05T16:23:16.180Z,27.49
2022-09-05T16:23:28.092Z,27.43
2022-09-05T16:24:58.877Z,27.19
2022-09-05T16:27:50.891Z,27.02
2022-09-05T16:30:23.419Z,26.88
2022-09-05T16:32:56.258Z,26.74
2022-09-05T16:35:25.142Z,26.69
2022-09-05T16:37:57.007Z,26.54
2022-09-05T16:40:29.484Z,26.52
2022-09-05T16:43:06.622Z,26.48
2022-09-05T16:45:39.423Z,26.25
2022-09-05T16:48:12.970Z,26.15
2022-09-05T16:51:13.179Z,25.94
2022-09-05T16:53:58.259Z,25.82
2022-09-05T16:56:32.306Z,25.81
2022-09-05T16:59:21.571Z,25.88
2022-09-05T17:02:06.654Z,25.84
2022-09-05T17:05:13.022Z,25.76
2022-09-05T17:08:05.219Z,25.69
2022-09-05T17:10:44.982Z,25.59
2022-09-05T17:13:42.816Z,25.52
2022-09-05T17:16:14.339Z,25.45
2022-09-05T17:18:42.290Z,25.41
2022-09-05T17:21:12.652Z,25.44
2022-09-05T17:29:18.858Z,25.35
2022-09-05T17:29:20.534Z,25.21
2022-09-05T17:32:49.347Z,24.90
2022-09-05T17:35:42.958Z,24.84
2022-09-05T17:38:28.492Z,24.68
2022-09-05T17:41:16.936Z,24.59
2022-09-05T17:43:57.761Z,24.46
2022-09-05T17:46:31.940Z,24.25
2022-09-05T17:49:18.846Z,24.09
2022-09-05T17:51:53.703Z,23.91
2022-09-05T17:54:29.467Z,23.76
2022-09-05T17:57:16.496Z,23.68
2022-09-05T17:59:46.605Z,23.59
2022-09-05T18:02:13.630Z,23.40
2022-09-05T18:04:52.502Z,23.37
2022-09-05T18:07:19.591Z,23.26
2022-09-05T18:10:12.091Z,23.10
2022-09-05T18:13:12.693Z,23.04
2022-09-05T18:15:33.270Z,22.92
2022-09-05T18:18:05.325Z,22.92
2022-09-05T18:20:58.411Z,22.83
2022-09-05T18:23:54.725Z,22.64
2022-09-05T18:26:25.342Z,22.58
2022-09-05T18:28:59.236Z,22.53
2022-09-05T18:31:41.631Z,22.54
2022-09-05T18:34:15.701Z,22.42
2022-09-05T18:36:45.774Z,22.33
2022-09-05T18:39:29.222Z,22.25
2022-09-05T18:42:25.933Z,22.24
2022-09-05T18:45:01.359Z,22.19
2022-09-05T18:47:52.653Z,22.15
2022-09-05T18:50:28.901Z,22.06
2022-09-05T18:53:09.927Z,21.96
2022-09-05T18:56:12.080Z,21.88
2022-09-05T18:59:09.881Z,21.79
2022-09-05T19:02:00.057Z,21.78
2022-09-05T19:04:55.311Z,21.69
2022-09-05T19:07:27.580Z,21.64
2022-09-05T19:10:07.951Z,21.71
2022-09-05T19:12:55.838Z,21.68
2022-09-05T19:15:26.105Z,21.69
2022-09-05T19:18:03.641Z,21.59
2022-09-05T19:20:56.182Z,21.60
2022-09-05T19:23:28.534Z,21.58
2022-09-05T19:26:10.073Z,21.57
2022-09-05T19:31:40.535Z,21.47
2022-09-05T19:36:51.695Z,21.42
2022-09-05T19:37:10.374Z,21.44
2022-09-05T19:37:24.391Z,21.37
2022-09-05T19:43:51.187Z,21.35
2022-09-05T19:47:36.098Z,21.37
2022-09-05T19:47:42.804Z,21.31
2022-09-05T19:48:28.688Z,21.32
2022-09-05T19:50:58.193Z,21.27
2022-09-05T19:53:25.416Z,21.24
2022-09-05T19:55:53.748Z,21.21
2022-09-05T19:58:23.398Z,21.18
2022-09-05T20:01:02.616Z,21.23
2022-09-05T20:03:39.549Z,21.18
2022-09-05T20:06:30.220Z,21.05
2022-09-05T20:09:19.398Z,21.06
2022-09-05T20:11:52.358Z,21.06
2022-09-05T20:14:29.099Z,20.95
2022-09-05T20:17:17.065Z,20.90
2022-09-05T20:19:46.541Z,20.85
2022-09-05T20:22:48.831Z,20.78
2022-09-05T20:25:19.817Z,20.69
2022-09-05T20:28:06.982Z,20.62
2022-09-05T20:30:41.592Z,20.46
2022-09-05T20:33:16.578Z,20.44
2022-09-05T20:39:52.814Z,20.37
2022-09-05T20:43:17.745Z,20.38
2022-09-05T20:43:35.082Z,20.19
2022-09-05T20:44:23.034Z,20.15
2022-09-05T20:53:29.454Z,20.14
2022-09-05T20:54:06.926Z,20.04
2022-09-05T20:54:19.062Z,20.02
2022-09-05T20:55:48.475Z,19.95
2022-09-05T20:58:19.903Z,19.95
2022-09-05T21:01:15.767Z,19.89
2022-09-05T21:03:54.192Z,19.81
2022-09-05T21:06:22.680Z,19.75
2022-09-05T21:08:51.685Z,19.74
2022-09-05T21:11:29.589Z,19.69
2022-09-05T21:13:59.381Z,19.68
2022-09-05T21:16:33.006Z,19.61
2022-09-05T21:19:00.264Z,19.53
2022-09-05T21:21:30.502Z,19.51
2022-09-05T21:24:06.340Z,19.50
2022-09-05T21:26:49.230Z,19.41
2022-09-05T21:29:27.374Z,19.37
2022-09-05T21:32:01.611Z,19.38
2022-09-05T21:34:32.980Z,19.40
2022-09-05T21:37:06.808Z,19.32
2022-09-05T21:39:46.476Z,19.24
2022-09-05T21:42:44.278Z,19.22
2022-09-05T21:47:41.945Z,19.14
2022-09-05T21:48:07.184Z,19.16
2022-09-05T21:50:45.533Z,19.17
2022-09-05T21:57:16.884Z,19.16
2022-09-05T21:59:20.519Z,19.13
2022-09-05T21:59:25.705Z,19.09
2022-09-05T22:01:56.045Z,19.05
2022-09-05T22:04:23.141Z,19.02
2022-09-05T22:06:53.019Z,18.93
